createdAt,value
2022-09-06T00:01:51.717Z,58.20
2022-09-06T00:02:51.765Z,58.15
2022-09-06T00:03:51.708Z,58.12
2022-09-06T00:04:51.694Z,58.00
2022-09-06T00:06:51.709Z,58.04
2022-09-06T00:08:51.704Z,58.09
2022-09-06T00:09:51.703Z,57.98
2022-09-06T00:10:51.707Z,58.01
2022-09-06T00:11:51.709Z,58.08
2022-09-06T00:12:51.718Z,58.05
2022-09-06T00:13:51.732Z,58.04
2022-09-06T00:14:51.720Z,58.10
2022-09-06T00:17:51.748Z,58.12
2022-09-06T00:19:51.741Z,58.13
2022-09-06T00:20:51.743Z,58.21
2022-09-06T00:22:51.740Z,58.36
2022-09-06T00:23:51.744Z,58.81
2022-09-06T00:24:51.749Z,59.02
2022-09-06T00:25:51.745Z,59.21
2022-09-06T00:26:51.739Z,59.19
2022-09-06T00:27:51.748Z,59.17
2022-09-06T00:28:51.745Z,59.12
2022-09-06T00:29:51.756Z,59.01
2022-09-06T00:30:51.793Z,58.98
2022-09-06T00:31:51.751Z,58.87
2022-09-06T00:32:51.761Z,58.82
2022-09-06T00:33:51.787Z,58.77
2022-09-06T00:34:51.784Z,58.67
2022-09-06T00:35:51.772Z,58.66
2022-09-06T00:36:51.778Z,58.59
2022-09-06T00:37:51.796Z,58.62
2022-09-06T00:38:51.775Z,58.56
2022-09-06T00:40:51.799Z,58.71
2022-09-06T00:41:51.799Z,58.80
2022-09-06T00:42:51.799Z,58.82
2022-09-06T00:43:51.795Z,59.11
2022-09-06T00:44:51.793Z,59.30
2022-09-06T00:46:51.854Z,59.42
2022-09-06T00:47:51.816Z,59.30
2022-09-06T00:48:51.793Z,59.24
2022-09-06T00:49:51.819Z,59.17
2022-09-06T00:50:51.828Z,59.20
2022-09-06T00:51:51.833Z,59.42
2022-09-06T00:53:51.831Z,59.54
2022-09-06T00:54:51.834Z,59.46
2022-09-06T00:55:51.829Z,59.64
2022-09-06T00:56:51.826Z,59.74
2022-09-06T00:57:51.822Z,60.14
2022-09-06T00:58:51.830Z,59.99
2022-09-06T00:59:51.849Z,60.00
2022-09-06T01:00:51.840Z,59.94
2022-09-06T01:01:51.936Z,59.80
2022-09-06T01:02:51.899Z,59.66
2022-09-06T01:03:51.836Z,59.49
2022-09-06T01:04:51.847Z,59.43
2022-09-06T01:05:54.519Z,59.41
2022-09-06T01:06:51.855Z,59.49
2022-09-06T01:07:51.853Z,59.38
2022-09-06T01:08:51.870Z,59.33
2022-09-06T01:09:51.858Z,59.26
2022-09-06T01:10:51.869Z,59.22
2022-09-06T01:11:51.878Z,59.17
2022-09-06T01:12:51.858Z,59.12
2022-09-06T01:13:51.864Z,59.02
2022-09-06T01:14:51.881Z,58.93
2022-09-06T01:15:51.915Z,58.87
2022-09-06T01:16:51.867Z,58.80
2022-09-06T01:17:51.873Z,58.71
2022-09-06T01:18:51.879Z,58.62
2022-09-06T01:19:51.877Z,58.63
2022-09-06T01:20:51.911Z,58.57
2022-09-06T01:21:51.882Z,58.53
2022-09-06T01:22:51.889Z,58.49
2022-09-06T01:23:51.886Z,58.50
2022-09-06T01:24:51.885Z,58.48
2022-09-06T01:25:51.895Z,58.42
2022-09-06T01:27:51.904Z,58.30
2022-09-06T01:28:51.916Z,58.25
2022-09-06T01:30:51.985Z,58.18
2022-09-06T01:31:51.908Z,58.18
2022-09-06T01:35:51.944Z,58.04
2022-09-06T01:37:09.031Z,58.00
2022-09-06T01:37:51.948Z,57.97
2022-09-06T01:38:51.937Z,57.97
2022-09-06T01:39:51.970Z,58.22
2022-09-06T01:40:51.946Z,58.29
2022-09-06T01:41:51.954Z,58.36
2022-09-06T01:42:51.947Z,58.53
2022-09-06T01:43:51.943Z,58.55
2022-09-06T01:44:51.941Z,58.60
2022-09-06T01:45:51.992Z,58.60
2022-09-06T01:46:51.951Z,58.69
2022-09-06T01:47:51.951Z,58.71
2022-09-06T01:48:51.960Z,58.76
2022-09-06T01:49:51.966Z,58.74
2022-09-06T01:50:51.964Z,58.74
2022-09-06T01:51:51.963Z,58.80
2022-09-06T01:52:51.964Z,58.85
2022-09-06T01:53:51.962Z,58.93
2022-09-06T01:54:52.003Z,58.88
2022-09-06T01:56:52.001Z,58.97
2022-09-06T01:57:51.984Z,58.93
2022-09-06T01:58:51.987Z,58.92
2022-09-06T01:59:51.985Z,58.86
2022-09-06T02:00:52.008Z,58.80
2022-09-06T02:01:52.101Z,58.81
2022-09-06T02:02:52.047Z,59.21
2022-09-06T02:03:51.997Z,59.68
2022-09-06T02:04:51.985Z,59.73
2022-09-06T02:05:52.013Z,59.74
2022-09-06T02:06:51.994Z,59.63
2022-09-06T02:07:52.018Z,59.46
2022-09-06T02:08:52.013Z,59.29
2022-09-06T02:09:52.020Z,59.24
2022-09-06T02:10:52.018Z,59.14
2022-09-06T02:11:52.022Z,59.20
2022-09-06T02:12:52.126Z,59.06
2022-09-06T02:13:52.029Z,59.26
2022-09-06T02:14:52.031Z,59.23
2022-09-06T02:15:52.020Z,59.28
2022-09-06T02:18:52.064Z,59.19
2022-09-06T02:19:52.056Z,59.17
2022-09-06T02:20:52.033Z,59.11
2022-09-06T02:21:52.039Z,58.98
2022-09-06T02:22:52.046Z,58.90
2022-09-06T02:24:52.060Z,58.81
2022-09-06T02:25:52.066Z,58.83
2022-09-06T02:30:52.127Z,58.84
2022-09-06T02:32:52.086Z,58.94
2022-09-06T02:34:52.091Z,59.00
2022-09-06T02:35:52.101Z,58.98
2022-09-06T02:36:52.069Z,58.94
2022-09-06T02:37:52.077Z,58.84
2022-09-06T02:38:52.082Z,58.80
2022-09-06T02:39:52.126Z,58.83
2022-09-06T02:40:52.087Z,58.84
2022-09-06T02:41:52.093Z,58.83
2022-09-06T02:42:52.106Z,58.81
2022-09-06T02:43:52.103Z,58.74
2022-09-06T02:44:52.098Z,58.70
2022-09-06T02:45:52.208Z,58.66
2022-09-06T02:47:52.126Z,58.65
2022-09-06T02:48:52.135Z,58.61
2022-09-06T02:49:52.127Z,58.62
2022-09-06T02:50:52.128Z,58.59
2022-09-06T02:51:52.111Z,58.52
2022-09-06T02:52:52.139Z,58.46
2022-09-06T02:53:52.128Z,58.38
2022-09-06T02:54:52.142Z,58.35
2022-09-06T02:55:52.115Z,58.27
2022-09-06T02:56:52.579Z,58.23
2022-09-06T02:57:52.144Z,58.19
2022-09-06T02:58:52.151Z,58.16
2022-09-06T02:59:52.145Z,58.12
2022-09-06T03:00:52.178Z,58.09
2022-09-06T03:01:52.147Z,58.07
2022-09-06T03:02:52.211Z,58.04
2022-09-06T03:06:52.154Z,58.07
2022-09-06T03:08:52.155Z,58.05
2022-09-06T03:09:52.159Z,58.10
2022-09-06T03:10:52.177Z,58.12
2022-09-06T03:12:52.179Z,58.20
2022-09-06T03:13:52.192Z,58.21
2022-09-06T03:14:55.022Z,58.15
2022-09-06T03:15:52.189Z,58.13
2022-09-06T03:16:52.258Z,58.07
2022-09-06T03:17:52.176Z,58.07
2022-09-06T03:18:52.185Z,58.01
2022-09-06T03:19:53.631Z,57.86
2022-09-06T03:20:52.174Z,57.85
2022-09-06T03:24:52.223Z,57.86
2022-09-06T03:25:52.211Z,57.86
2022-09-06T03:26:52.215Z,57.84
2022-09-06T03:29:52.219Z,57.88
2022-09-06T03:30:52.364Z,57.87
2022-09-06T03:32:52.230Z,58.04
2022-09-06T03:33:52.226Z,58.04
2022-09-06T03:34:52.223Z,58.17
2022-09-06T03:35:52.242Z,58.77
2022-09-06T03:36:52.225Z,58.77
2022-09-06T03:37:52.228Z,58.90
2022-09-06T03:38:52.241Z,58.96
2022-09-06T03:39:52.333Z,58.96
2022-09-06T03:40:52.252Z,59.07
2022-09-06T03:42:52.263Z,59.35
2022-09-06T03:43:52.258Z,59.25
2022-09-06T03:44:52.305Z,59.08
2022-09-06T03:45:52.293Z,59.08
2022-09-06T03:46:52.272Z,58.95
2022-09-06T03:47:52.282Z,58.88
2022-09-06T03:48:52.256Z,58.81
2022-09-06T03:49:52.267Z,58.60
2022-09-06T03:50:52.277Z,58.50
2022-09-06T03:51:52.292Z,58.48
2022-09-06T03:52:52.282Z,58.21
2022-09-06T03:53:52.284Z,58.41
2022-09-06T03:54:52.291Z,58.41
2022-09-06T03:55:52.269Z,58.75
2022-09-06T03:57:52.299Z,58.70
2022-09-06T03:58:52.274Z,58.70
2022-09-06T03:59:52.279Z,58.71
2022-09-06T04:00:52.352Z,58.43
2022-09-06T04:01:52.294Z,58.31
2022-09-06T04:02:52.321Z,57.97
2022-09-06T04:03:52.308Z,57.97
2022-09-06T04:04:52.323Z,59.06
2022-09-06T04:05:52.297Z,59.06
2022-09-06T04:06:52.317Z,59.31
2022-09-06T04:07:52.299Z,59.31
2022-09-06T04:08:52.318Z,59.26
2022-09-06T04:09:52.331Z,59.18
2022-09-06T04:10:52.322Z,59.10
2022-09-06T04:11:52.329Z,59.03
2022-09-06T04:12:52.320Z,59.03
2022-09-06T04:13:52.331Z,58.94
2022-09-06T04:14:52.329Z,59.20
2022-09-06T04:15:52.347Z,59.25
2022-09-06T04:16:52.437Z,59.25
2022-09-06T04:17:52.351Z,59.23
2022-09-06T04:18:52.330Z,59.33
2022-09-06T04:19:52.332Z,59.30
2022-09-06T04:20:52.357Z,59.30
2022-09-06T04:21:52.357Z,58.92
2022-09-06T04:22:52.363Z,58.78
2022-09-06T04:23:52.349Z,58.78
2022-09-06T04:24:52.375Z,58.63
2022-09-06T04:25:52.365Z,58.49
2022-09-06T04:26:52.363Z,58.43
2022-09-06T04:27:52.366Z,58.43
2022-09-06T04:28:52.358Z,58.42
2022-09-06T04:29:52.361Z,58.31
2022-09-06T04:30:52.391Z,58.31
2022-09-06T04:31:52.426Z,58.23
2022-09-06T04:32:52.378Z,58.18
2022-09-06T04:33:52.386Z,58.50
2022-09-06T04:34:52.400Z,58.51
2022-09-06T04:35:52.380Z,58.51
2022-09-06T04:36:52.382Z,58.45
2022-09-06T04:37:52.408Z,58.14
2022-09-06T04:38:52.410Z,58.17
2022-09-06T04:39:52.456Z,58.17
2022-09-06T04:41:52.412Z,58.59
2022-09-06T04:42:52.418Z,58.57
2022-09-06T04:43:52.405Z,58.43
2022-09-06T04:44:52.420Z,58.36
2022-09-06T04:45:52.516Z,58.36
2022-09-06T04:46:52.409Z,58.17
2022-09-06T04:47:52.426Z,58.17
2022-09-06T04:48:52.406Z,58.09
2022-09-06T04:49:52.420Z,58.09
2022-09-06T04:50:52.428Z,57.91
2022-09-06T04:51:52.424Z,57.91
2022-09-06T04:52:52.441Z,58.85
2022-09-06T04:53:52.451Z,58.85
2022-09-06T04:55:52.431Z,59.05
2022-09-06T04:56:52.437Z,58.91
2022-09-06T04:57:52.450Z,58.96
2022-09-06T04:58:52.448Z,58.87
2022-09-06T04:59:52.474Z,58.62
2022-09-06T05:00:52.576Z,58.62
2022-09-06T05:01:52.511Z,58.37
2022-09-06T05:02:52.445Z,58.14
2022-09-06T05:03:56.582Z,57.82
2022-09-06T05:04:52.454Z,57.82
2022-09-06T05:05:52.462Z,57.73
2022-09-06T05:09:52.489Z,57.76
2022-09-06T05:11:52.503Z,57.62
2022-09-06T05:12:52.469Z,57.74
2022-09-06T05:13:52.485Z,57.74
2022-09-06T05:14:52.503Z,57.83
2022-09-06T05:15:52.485Z,57.83
2022-09-06T05:16:52.506Z,57.71
2022-09-06T05:17:52.506Z,57.51
2022-09-06T05:18:52.488Z,57.47
2022-09-06T05:19:52.485Z,57.47
2022-09-06T05:22:52.523Z,57.67
2022-09-06T05:24:52.499Z,57.90
2022-09-06T05:26:52.511Z,58.09
2022-09-06T05:27:52.529Z,58.13
2022-09-06T05:28:52.529Z,58.19
2022-09-06T05:29:52.530Z,58.25
2022-09-06T05:30:52.528Z,58.25
2022-09-06T05:31:52.612Z,58.37
2022-09-06T05:32:52.554Z,58.35
2022-09-06T05:33:52.556Z,58.35
2022-09-06T05:34:52.522Z,58.35
2022-09-06T05:37:52.562Z,58.30
2022-09-06T05:39:52.670Z,58.23
2022-09-06T05:42:52.547Z,58.05
2022-09-06T05:43:52.560Z,58.03
2022-09-06T05:44:52.559Z,57.90
2022-09-06T05:45:52.659Z,57.90
2022-09-06T05:46:52.573Z,57.78
2022-09-06T05:47:52.602Z,57.76
2022-09-06T05:48:52.576Z,57.76
2022-09-06T05:49:52.569Z,57.71
2022-09-06T05:50:52.584Z,57.70
2022-09-06T05:51:52.582Z,57.61
2022-09-06T05:52:52.588Z,57.50
2022-09-06T05:53:52.587Z,57.50
2022-09-06T05:54:52.589Z,57.40
2022-09-06T05:55:52.603Z,57.18
2022-09-06T05:56:52.593Z,56.92
2022-09-06T05:57:52.632Z,56.89
2022-09-06T05:58:52.611Z,56.78
2022-09-06T05:59:52.615Z,56.54
2022-09-06T06:00:52.660Z,56.54
2022-09-06T06:01:52.657Z,56.36
2022-09-06T06:02:52.622Z,56.24
2022-09-06T06:03:52.617Z,56.08
2022-09-06T06:04:52.634Z,55.96
2022-09-06T06:05:52.610Z,55.96
2022-09-06T06:06:52.626Z,55.87
2022-09-06T06:07:52.647Z,55.62
2022-09-06T06:08:52.622Z,55.60
2022-09-06T06:09:52.630Z,55.42
2022-09-06T06:10:52.638Z,55.42
2022-09-06T06:11:52.634Z,55.42
2022-09-06T06:12:52.627Z,55.29
2022-09-06T06:13:52.635Z,54.89
2022-09-06T06:14:52.646Z,54.89
2022-09-06T06:16:52.726Z,54.68
2022-09-06T06:17:52.694Z,54.68
2022-09-06T06:18:52.922Z,54.69
2022-09-06T06:19:52.662Z,54.85
2022-09-06T06:20:52.675Z,54.85
2022-09-06T06:21:52.663Z,54.10
2022-09-06T06:22:52.669Z,53.88
2022-09-06T06:23:52.672Z,53.92
2022-09-06T06:24:52.681Z,53.79
2022-09-06T06:25:52.682Z,53.54
2022-09-06T06:26:52.660Z,52.38
2022-09-06T06:27:52.655Z,52.38
2022-09-06T06:28:52.698Z,52.13
2022-09-06T06:29:52.685Z,52.13
2022-09-06T06:30:52.697Z,52.95
2022-09-06T06:31:52.751Z,52.95
2022-09-06T06:32:52.721Z,52.66
2022-09-06T06:33:52.695Z,52.39
2022-09-06T06:34:52.705Z,52.99
2022-09-06T06:35:52.708Z,53.26
2022-09-06T06:36:52.707Z,53.26
2022-09-06T06:37:52.696Z,53.26
2022-09-06T06:38:52.716Z,52.94
2022-09-06T06:39:52.765Z,52.68
2022-09-06T06:40:57.214Z,52.68
2022-09-06T06:41:52.729Z,52.29
2022-09-06T06:42:52.711Z,52.01
2022-09-06T06:43:52.720Z,51.62
2022-09-06T06:44:52.715Z,50.93
2022-09-06T06:45:52.749Z,50.93
2022-09-06T06:46:52.742Z,50.67
2022-09-06T06:47:53.057Z,50.67
2022-09-06T06:48:54.675Z,50.84
2022-09-06T06:49:52.735Z,51.74
2022-09-06T06:50:52.730Z,52.21
2022-09-06T06:51:52.731Z,52.21
2022-09-06T06:52:52.752Z,52.85
2022-09-06T06:53:52.756Z,53.19
2022-09-06T06:54:52.749Z,54.30
2022-09-06T06:55:52.750Z,54.30
2022-09-06T06:56:52.757Z,54.44
2022-09-06T06:57:52.789Z,54.26
2022-09-06T06:58:52.759Z,54.26
2022-09-06T06:59:52.756Z,54.18
2022-09-06T07:00:52.872Z,54.18
2022-09-06T07:01:52.878Z,53.96
2022-09-06T07:02:52.786Z,53.74
2022-09-06T07:03:52.787Z,53.58
2022-09-06T07:04:52.778Z,53.22
2022-09-06T07:06:13.381Z,53.22
2022-09-06T07:07:52.807Z,52.97
2022-09-06T07:08:52.800Z,52.89
2022-09-06T07:10:52.795Z,52.10
2022-09-06T07:11:52.797Z,51.84
2022-09-06T07:12:52.800Z,51.89
2022-09-06T07:13:52.797Z,51.89
2022-09-06T07:14:52.806Z,51.40
2022-09-06T07:15:52.882Z,51.04
2022-09-06T07:16:52.822Z,51.06
2022-09-06T07:17:52.842Z,51.06
2022-09-06T07:18:52.811Z,50.66
2022-09-06T07:20:15.134Z,51.40
2022-09-06T07:22:52.823Z,50.82
2022-09-06T07:24:08.101Z,50.82
2022-09-06T07:24:52.822Z,50.82
2022-09-06T07:25:52.828Z,51.35
2022-09-06T07:27:52.910Z,50.83
2022-09-06T07:28:52.829Z,50.83
2022-09-06T07:29:52.844Z,51.74
2022-09-06T07:30:52.829Z,51.74
2022-09-06T07:32:12.290Z,51.53
2022-09-06T07:32:52.858Z,52.11
2022-09-06T07:33:55.625Z,52.50
2022-09-06T07:35:52.849Z,52.31
2022-09-06T07:36:52.852Z,52.22
2022-09-06T07:37:52.866Z,51.72
2022-09-06T07:38:52.860Z,51.33
2022-09-06T07:39:52.948Z,51.33
2022-09-06T07:40:52.857Z,50.91
2022-09-06T07:41:52.893Z,50.43
2022-09-06T07:42:52.901Z,49.94
2022-09-06T07:43:52.871Z,49.09
2022-09-06T07:44:52.876Z,48.58
2022-09-06T07:45:52.872Z,48.58
2022-09-06T07:46:53.112Z,48.43
2022-09-06T07:48:52.877Z,49.34
2022-09-06T07:50:55.865Z,50.73
2022-09-06T07:51:52.877Z,50.73
2022-09-06T07:53:11.077Z,50.78
2022-09-06T07:54:07.086Z,51.02
2022-09-06T07:54:52.896Z,51.82
2022-09-06T07:55:52.916Z,52.23
2022-09-06T07:56:52.900Z,52.23
2022-09-06T07:59:52.923Z,52.43
2022-09-06T08:00:52.972Z,52.59
2022-09-06T08:01:52.967Z,52.78
2022-09-06T08:02:52.921Z,53.27
2022-09-06T08:04:52.944Z,53.27
2022-09-06T08:06:08.542Z,53.27
2022-09-06T08:09:52.934Z,56.26
2022-09-06T08:10:52.944Z,58.12
2022-09-06T08:11:53.014Z,58.12
2022-09-06T08:13:52.945Z,59.32
2022-09-06T08:14:52.951Z,59.59
2022-09-06T08:15:52.995Z,59.68
2022-09-06T08:16:52.983Z,60.16
2022-09-06T08:17:52.971Z,60.16
2022-09-06T08:18:52.970Z,60.23
2022-09-06T08:19:52.968Z,60.23
2022-09-06T08:20:52.978Z,60.31
2022-09-06T08:21:52.964Z,61.16
2022-09-06T08:22:52.966Z,61.16
2022-09-06T08:23:52.987Z,61.25
2022-09-06T08:24:52.991Z,61.00
2022-09-06T08:25:52.988Z,61.23
2022-09-06T08:26:52.999Z,61.08
2022-09-06T08:27:52.997Z,60.77
2022-09-06T08:28:52.998Z,61.19
2022-09-06T08:29:52.998Z,61.07
2022-09-06T08:30:52.998Z,61.80
2022-09-06T08:31:53.112Z,61.14
2022-09-06T08:33:53.002Z,61.48
2022-09-06T08:34:52.992Z,61.28
2022-09-06T08:35:53.011Z,61.16
2022-09-06T08:36:53.036Z,61.38
2022-09-06T08:38:53.014Z,60.96
2022-09-06T08:39:53.039Z,60.91
2022-09-06T08:40:53.030Z,61.90
2022-09-06T08:41:53.022Z,61.90
2022-09-06T08:42:53.036Z,62.29
2022-09-06T08:45:55.667Z,63.55
2022-09-06T08:46:53.085Z,63.55
2022-09-06T08:48:53.034Z,64.56
2022-09-06T08:49:53.049Z,64.67
2022-09-06T08:50:53.059Z,64.93
2022-09-06T08:51:53.041Z,64.93
2022-09-06T08:53:13.269Z,65.69
2022-09-06T08:53:53.044Z,65.69
2022-09-06T08:54:53.066Z,65.99
2022-09-06T08:55:53.064Z,65.71
2022-09-06T08:56:53.058Z,65.71
2022-09-06T08:57:53.063Z,64.76
2022-09-06T08:58:53.068Z,64.83
2022-09-06T08:59:53.082Z,64.38
2022-09-06T09:00:53.164Z,64.50
2022-09-06T09:01:53.110Z,64.65
2022-09-06T09:02:53.086Z,64.86
2022-09-06T09:03:53.079Z,64.88
2022-09-06T09:04:53.109Z,64.60
2022-09-06T09:05:53.094Z,63.82
2022-09-06T09:06:53.095Z,64.21
2022-09-06T09:07:53.102Z,64.21
2022-09-06T09:08:53.110Z,64.22
2022-09-06T09:09:53.086Z,63.95
2022-09-06T09:10:53.103Z,64.20
2022-09-06T09:11:53.102Z,63.96
2022-09-06T09:12:53.107Z,63.96
2022-09-06T09:13:55.497Z,63.83
2022-09-06T09:14:53.102Z,63.34
2022-09-06T09:15:53.207Z,63.46
2022-09-06T09:16:53.128Z,63.62
2022-09-06T09:17:53.111Z,63.62
2022-09-06T09:18:53.117Z,63.43
2022-09-06T09:19:53.123Z,62.49
2022-09-06T09:20:54.323Z,62.66
2022-09-06T09:21:53.130Z,62.62
2022-09-06T09:22:53.137Z,62.77
2022-09-06T09:23:53.131Z,62.94
2022-09-06T09:24:53.166Z,62.61
2022-09-06T09:25:53.160Z,62.81
2022-09-06T09:26:53.149Z,62.64
2022-09-06T09:27:53.143Z,62.74
2022-09-06T09:28:53.148Z,62.74
2022-09-06T09:30:53.157Z,63.65
2022-09-06T09:31:53.821Z,63.65
2022-09-06T09:32:53.148Z,63.98
2022-09-06T09:33:53.159Z,63.75
2022-09-06T09:34:53.211Z,63.04
2022-09-06T09:35:53.185Z,61.20
2022-09-06T09:37:57.406Z,60.86
2022-09-06T09:38:53.174Z,61.19
2022-09-06T09:39:53.241Z,60.81
2022-09-06T09:40:53.190Z,60.37
2022-09-06T09:41:53.172Z,59.70
2022-09-06T09:42:53.190Z,59.91
2022-09-06T09:43:53.212Z,60.25
2022-09-06T09:44:53.224Z,60.13
2022-09-06T09:45:53.220Z,60.13
2022-09-06T09:46:53.257Z,59.67
2022-09-06T09:47:53.199Z,58.95
2022-09-06T09:48:53.187Z,57.80
2022-09-06T09:50:53.191Z,58.10
2022-09-06T09:51:53.200Z,58.22
2022-09-06T09:52:53.203Z,57.36
2022-09-06T09:53:53.200Z,57.92
2022-09-06T09:54:53.230Z,57.75
2022-09-06T09:55:53.239Z,57.56
2022-09-06T09:56:53.222Z,57.56
2022-09-06T09:57:55.783Z,57.49
2022-09-06T09:58:53.241Z,57.58
2022-09-06T09:59:53.253Z,57.63
2022-09-06T10:00:54.465Z,58.03
2022-09-06T10:01:53.249Z,57.51
2022-09-06T10:02:53.250Z,57.22
2022-09-06T10:04:53.255Z,57.30
2022-09-06T10:05:56.325Z,57.22
2022-09-06T10:07:09.162Z,57.03
2022-09-06T10:07:53.261Z,56.99
2022-09-06T10:08:53.311Z,56.99
2022-09-06T10:10:53.286Z,55.99
2022-09-06T10:11:53.259Z,55.94
2022-09-06T10:12:53.284Z,56.44
2022-09-06T10:13:54.349Z,56.44
2022-09-06T10:14:53.294Z,57.05
2022-09-06T10:15:53.392Z,57.37
2022-09-06T10:16:53.302Z,57.46
2022-09-06T10:17:53.292Z,57.46
2022-09-06T10:18:53.309Z,57.47
2022-09-06T10:19:53.286Z,57.47
2022-09-06T10:20:53.305Z,56.35
2022-09-06T10:21:53.305Z,56.35
2022-09-06T10:22:53.279Z,55.98
2022-09-06T10:24:53.290Z,55.18
2022-09-06T10:25:53.301Z,54.16
2022-09-06T10:26:53.311Z,54.16
2022-09-06T10:28:10.538Z,53.73
2022-09-06T10:28:53.307Z,53.73
2022-09-06T10:29:53.297Z,53.97
2022-09-06T10:30:53.394Z,52.46
2022-09-06T10:31:53.309Z,52.75
2022-09-06T10:32:53.310Z,52.75
2022-09-06T10:33:53.344Z,52.64
2022-09-06T10:34:53.338Z,52.64
2022-09-06T10:35:53.329Z,52.20
2022-09-06T10:36:53.351Z,52.20
2022-09-06T10:37:53.318Z,52.30
2022-09-06T10:38:53.340Z,52.30
2022-09-06T10:39:53.395Z,51.69
2022-09-06T10:40:53.331Z,51.69
2022-09-06T10:41:53.332Z,52.02
2022-09-06T10:42:53.350Z,51.96
2022-09-06T10:43:53.361Z,51.96
2022-09-06T10:44:53.353Z,51.23
2022-09-06T10:45:53.357Z,50.82
2022-09-06T10:46:53.447Z,51.14
2022-09-06T10:47:53.361Z,51.14
2022-09-06T10:48:54.719Z,50.98
2022-09-06T10:49:53.361Z,50.98
2022-09-06T10:50:53.372Z,50.93
2022-09-06T10:51:53.382Z,51.75
2022-09-06T10:52:53.390Z,51.45
2022-09-06T10:53:53.387Z,51.45
2022-09-06T10:54:53.412Z,51.14
2022-09-06T10:55:53.406Z,51.14
2022-09-06T10:56:53.398Z,50.75
2022-09-06T10:58:17.983Z,50.47
2022-09-06T10:59:53.394Z,50.17
2022-09-06T11:00:53.438Z,49.41
2022-09-06T11:01:53.586Z,48.82
2022-09-06T11:03:53.472Z,49.68
2022-09-06T11:05:53.411Z,49.54
2022-09-06T11:06:53.426Z,48.20
2022-09-06T11:08:57.205Z,48.54
2022-09-06T11:09:53.423Z,49.91
2022-09-06T11:10:53.495Z,50.17
2022-09-06T11:11:53.439Z,50.17
2022-09-06T11:12:53.414Z,50.01
2022-09-06T11:13:53.432Z,49.44
2022-09-06T11:14:53.437Z,49.44
2022-09-06T11:15:53.467Z,48.70
2022-09-06T11:16:53.444Z,47.32
2022-09-06T11:17:53.448Z,47.81
2022-09-06T11:18:53.450Z,48.47
2022-09-06T11:19:53.437Z,48.47
2022-09-06T11:20:53.474Z,48.91
2022-09-06T11:21:53.445Z,49.92
2022-09-06T11:22:53.437Z,49.92
2022-09-06T11:23:53.453Z,49.68
2022-09-06T11:24:53.463Z,49.32
2022-09-06T11:25:53.514Z,49.97
2022-09-06T11:26:53.485Z,49.97
2022-09-06T11:27:57.793Z,50.48
2022-09-06T11:28:53.500Z,50.67
2022-09-06T11:29:53.489Z,50.44
2022-09-06T11:30:53.551Z,50.44
2022-09-06T11:32:17.599Z,50.29
2022-09-06T11:32:53.523Z,50.35
2022-09-06T11:33:53.512Z,49.98
2022-09-06T11:34:53.496Z,49.98
2022-09-06T11:35:53.530Z,49.59
2022-09-06T11:36:53.532Z,49.48
2022-09-06T11:37:53.482Z,49.48
2022-09-06T11:38:53.506Z,49.86
2022-09-06T11:40:53.509Z,49.24
2022-09-06T11:41:53.509Z,49.24
2022-09-06T11:42:53.526Z,48.03
2022-09-06T11:43:53.520Z,48.03
2022-09-06T11:44:53.513Z,47.39
2022-09-06T11:45:53.561Z,47.27
2022-09-06T11:46:53.554Z,47.09
2022-09-06T11:47:53.522Z,47.63
2022-09-06T11:48:53.525Z,47.78
2022-09-06T11:49:53.540Z,48.01
2022-09-06T11:50:53.511Z,48.01
2022-09-06T11:51:53.505Z,48.64
2022-09-06T11:52:53.530Z,49.09
2022-09-06T11:53:53.538Z,49.49
2022-09-06T11:54:53.540Z,49.49
2022-09-06T11:55:53.580Z,49.42
2022-09-06T11:56:53.548Z,49.10
2022-09-06T11:57:53.552Z,49.19
2022-09-06T11:58:53.567Z,48.41
2022-09-06T12:00:53.554Z,48.72
2022-09-06T12:04:07.880Z,48.64
2022-09-06T12:04:55.245Z,49.50
2022-09-06T12:05:53.554Z,49.50
2022-09-06T12:06:53.583Z,49.85
2022-09-06T12:07:53.604Z,50.62
2022-09-06T12:08:53.579Z,50.62
2022-09-06T12:09:53.591Z,51.18
2022-09-06T12:10:53.562Z,51.18
2022-09-06T12:11:53.577Z,51.58
2022-09-06T12:12:53.598Z,51.16
2022-09-06T12:13:53.587Z,51.16
2022-09-06T12:14:53.602Z,51.50
2022-09-06T12:15:53.678Z,51.89
2022-09-06T12:16:53.608Z,52.20
2022-09-06T12:17:53.615Z,52.20
2022-09-06T12:18:53.586Z,52.98
2022-09-06T12:19:53.619Z,54.55
2022-09-06T12:20:53.605Z,54.89
2022-09-06T12:21:53.638Z,55.38
2022-09-06T12:22:53.614Z,55.28
2022-09-06T12:23:53.606Z,55.28
2022-09-06T12:24:53.611Z,55.35
2022-09-06T12:25:53.613Z,55.58
2022-09-06T12:26:55.880Z,56.03
2022-09-06T12:27:53.637Z,56.59
2022-09-06T12:28:53.638Z,56.59
2022-09-06T12:29:53.637Z,57.09
2022-09-06T12:30:53.687Z,56.83
2022-09-06T12:31:53.684Z,57.08
2022-09-06T12:32:53.634Z,57.08
2022-09-06T12:33:53.647Z,57.49
2022-09-06T12:35:57.055Z,57.84
2022-09-06T12:36:53.644Z,57.84
2022-09-06T12:37:53.652Z,57.91
2022-09-06T12:38:53.649Z,58.46
2022-09-06T12:39:53.734Z,58.64
2022-09-06T12:41:53.679Z,58.34
2022-09-06T12:42:53.664Z,58.75
2022-09-06T12:43:53.689Z,58.94
2022-09-06T12:44:53.671Z,59.04
2022-09-06T12:45:53.680Z,59.39
2022-09-06T12:46:53.719Z,59.60
2022-09-06T12:47:53.666Z,59.60
2022-09-06T12:48:53.681Z,60.23
2022-09-06T12:49:53.688Z,60.95
2022-09-06T12:50:53.688Z,60.79
2022-09-06T12:51:53.682Z,60.79
2022-09-06T12:52:53.699Z,60.34
2022-09-06T12:53:53.699Z,60.34
2022-09-06T12:54:53.686Z,61.19
2022-09-06T12:55:53.701Z,61.21
2022-09-06T12:56:53.691Z,61.21
2022-09-06T12:57:53.712Z,61.24
2022-09-06T12:58:53.710Z,61.24
2022-09-06T12:59:53.707Z,61.57
2022-09-06T13:00:53.703Z,61.54
2022-09-06T13:01:53.788Z,62.06
2022-09-06T13:02:53.838Z,62.06
2022-09-06T13:03:53.731Z,60.83
2022-09-06T13:04:53.714Z,60.83
2022-09-06T13:05:53.718Z,60.86
2022-09-06T13:06:53.768Z,60.76
2022-09-06T13:07:53.748Z,59.81
2022-09-06T13:08:53.712Z,59.81
2022-09-06T13:09:53.723Z,59.57
2022-09-06T13:10:53.727Z,59.62
2022-09-06T13:11:53.738Z,59.75
2022-09-06T13:12:53.733Z,59.39
2022-09-06T13:14:53.744Z,58.66
2022-09-06T13:15:53.765Z,58.71
2022-09-06T13:16:53.768Z,59.64
2022-09-06T13:17:53.739Z,59.87
2022-09-06T13:18:53.759Z,59.87
2022-09-06T13:19:54.390Z,59.33
2022-09-06T13:20:53.766Z,59.33
2022-09-06T13:21:56.302Z,58.86
2022-09-06T13:22:53.759Z,58.78
2022-09-06T13:23:53.769Z,58.78
2022-09-06T13:24:53.748Z,58.49
2022-09-06T13:25:53.797Z,58.49
2022-09-06T13:26:53.775Z,58.54
2022-09-06T13:27:53.837Z,58.54
2022-09-06T13:29:53.792Z,56.30
2022-09-06T13:30:53.894Z,56.30
2022-09-06T13:32:53.813Z,56.58
2022-09-06T13:33:53.780Z,56.58
2022-09-06T13:34:53.785Z,56.48
2022-09-06T13:35:53.802Z,56.66
2022-09-06T13:36:53.806Z,56.00
2022-09-06T13:37:53.834Z,56.00
2022-09-06T13:38:53.810Z,55.98
2022-09-06T13:39:53.875Z,56.27
2022-09-06T13:41:10.985Z,56.27
2022-09-06T13:41:53.801Z,56.28
2022-09-06T13:42:53.800Z,56.28
2022-09-06T13:43:53.831Z,57.16
2022-09-06T13:44:53.819Z,56.29
2022-09-06T13:45:53.870Z,56.06
2022-09-06T13:46:53.813Z,56.06
2022-09-06T13:48:03.484Z,56.09
2022-09-06T13:48:53.860Z,56.66
2022-09-06T13:49:53.863Z,57.60
2022-09-06T13:50:53.822Z,57.60
2022-09-06T13:51:53.841Z,57.70
2022-09-06T13:52:53.843Z,55.52
2022-09-06T13:53:53.852Z,55.52
2022-09-06T13:54:53.876Z,56.12
2022-09-06T13:55:53.867Z,56.12
2022-09-06T13:56:53.855Z,55.92
2022-09-06T13:57:53.852Z,55.92
2022-09-06T13:58:53.855Z,56.50
2022-09-06T13:59:53.865Z,56.58
2022-09-06T14:00:53.867Z,56.58
2022-09-06T14:01:53.968Z,57.94
2022-09-06T14:02:53.993Z,57.94
2022-09-06T14:03:53.896Z,58.27
2022-09-06T14:04:53.866Z,58.27
2022-09-06T14:05:53.869Z,58.43
2022-09-06T14:06:53.876Z,57.96
2022-09-06T14:07:53.873Z,58.06
2022-09-06T14:09:07.053Z,58.06
2022-09-06T14:09:53.880Z,57.67
2022-09-06T14:10:53.874Z,57.85
2022-09-06T14:11:53.885Z,57.96
2022-09-06T14:12:53.926Z,58.07
2022-09-06T14:13:53.918Z,57.95
2022-09-06T14:14:53.917Z,58.07
2022-09-06T14:15:53.963Z,57.58
2022-09-06T14:17:53.902Z,57.44
2022-09-06T14:18:53.899Z,56.87
2022-09-06T14:19:53.916Z,56.87
2022-09-06T14:20:53.911Z,57.18
2022-09-06T14:21:53.925Z,57.68
2022-09-06T14:22:53.954Z,57.68
2022-09-06T14:23:53.913Z,57.86
2022-09-06T14:24:53.931Z,57.96
2022-09-06T14:25:53.961Z,58.01
2022-09-06T14:26:53.942Z,57.95
2022-09-06T14:27:53.935Z,57.29